createdAt,value
2022-08-30T00:01:30.359Z,9.80
2022-08-30T00:03:58.407Z,10.38
2022-08-30T00:06:28.996Z,14.10
2022-08-30T00:08:56.401Z,12.57
2022-08-30T00:11:26.257Z,11.32
2022-08-30T00:13:55.226Z,15.75
2022-08-30T00:16:23.876Z,11.30
2022-08-30T00:18:51.245Z,10.57
2022-08-30T00:21:19.282Z,10.40
2022-08-30T00:23:46.099Z,12.02
2022-08-30T00:26:15.045Z,12.43
2022-08-30T00:28:44.426Z,10.25
2022-08-30T00:31:15.202Z,11.27
2022-08-30T00:33:42.675Z,8.13
2022-08-30T00:36:09.621Z,12.40
2022-08-30T00:38:36.415Z,8.88
2022-08-30T00:41:03.340Z,9.15
2022-08-30T00:43:34.231Z,10.25
2022-08-30T00:46:07.723Z,10.32
2022-08-30T00:48:38.899Z,8.35
2022-08-30T00:51:13.003Z,11.27
2022-08-30T00:53:47.057Z,9.70
2022-08-30T00:56:14.430Z,12.77
2022-08-30T00:58:47.021Z,9.55
2022-08-30T01:01:14.334Z,5.88
2022-08-30T01:03:44.797Z,8.70
2022-08-30T01:06:14.975Z,8.90
2022-08-30T01:08:42.800Z,9.18
2022-08-30T01:11:12.303Z,9.20
2022-08-30T01:13:40.720Z,11.30
2022-08-30T01:16:08.382Z,10.15
2022-08-30T01:18:37.151Z,8.60
2022-08-30T01:21:22.412Z,12.00
2022-08-30T01:23:51.708Z,8.23
2022-08-30T01:26:21.821Z,13.02
2022-08-30T01:28:53.310Z,11.02
2022-08-30T01:31:22.674Z,10.30
2022-08-30T01:33:52.477Z,10.25
2022-08-30T01:36:20.395Z,8.40
2022-08-30T01:38:56.872Z,9.02
2022-08-30T01:41:35.508Z,10.63
2022-08-30T01:44:10.662Z,12.48
2022-08-30T01:46:45.871Z,11.00
2022-08-30T01:49:23.134Z,10.73
2022-08-30T01:52:00.511Z,9.77
2022-08-30T01:54:36.618Z,9.02
2022-08-30T01:57:11.953Z,8.75
2022-08-30T01:59:40.506Z,12.00
2022-08-30T02:02:07.959Z,10.30
2022-08-30T02:04:37.329Z,10.70
2022-08-30T02:07:06.438Z,8.23
2022-08-30T02:09:33.507Z,10.40
2022-08-30T02:12:07.835Z,9.00
2022-08-30T02:14:39.460Z,8.02
2022-08-30T02:19:34.189Z,7.45
2022-08-30T02:22:03.468Z,8.80
2022-08-30T02:24:33.472Z,8.65
2022-08-30T02:27:00.467Z,8.50
2022-08-30T02:29:27.597Z,9.07
2022-08-30T02:31:54.544Z,8.40
2022-08-30T02:34:21.725Z,8.20
2022-08-30T02:36:53.408Z,7.68
2022-08-30T02:39:22.398Z,10.85
2022-08-30T02:41:51.393Z,12.05
2022-08-30T02:44:20.441Z,8.77
2022-08-30T02:46:48.169Z,9.93
2022-08-30T02:49:33.554Z,11.32
2022-08-30T02:52:02.112Z,9.70
2022-08-30T02:54:33.238Z,9.68
2022-08-30T02:57:04.800Z,11.00
2022-08-30T02:59:32.091Z,9.95
2022-08-30T03:02:01.106Z,10.40
2022-08-30T03:04:28.018Z,12.60
2022-08-30T03:06:57.033Z,9.23
2022-08-30T03:09:23.881Z,11.75
2022-08-30T03:11:53.075Z,14.38
2022-08-30T03:14:20.944Z,11.52
2022-08-30T03:16:47.732Z,10.63
2022-08-30T03:19:14.556Z,11.25
2022-08-30T03:21:41.352Z,11.88
2022-08-30T03:24:08.560Z,12.82
2022-08-30T03:26:37.807Z,11.95
2022-08-30T03:29:04.704Z,12.57
2022-08-30T03:31:31.595Z,14.95
2022-08-30T03:34:05.484Z,12.32
2022-08-30T03:36:33.261Z,13.38
2022-08-30T03:39:02.456Z,13.77
2022-08-30T03:41:29.198Z,12.55
2022-08-30T03:44:00.217Z,12.82
2022-08-30T03:46:28.746Z,14.68
2022-08-30T03:48:58.994Z,11.65
2022-08-30T03:51:26.326Z,14.70
2022-08-30T03:53:55.372Z,12.88
2022-08-30T03:56:22.131Z,15.13
2022-08-30T03:58:49.192Z,13.00
2022-08-30T04:01:16.074Z,13.48
2022-08-30T04:03:42.941Z,14.45
2022-08-30T04:06:09.834Z,15.68
2022-08-30T04:08:38.834Z,12.30
2022-08-30T04:11:09.748Z,13.40
2022-08-30T04:13:36.564Z,14.18
2022-08-30T04:16:03.765Z,13.27
2022-08-30T04:18:30.616Z,14.25
2022-08-30T04:20:57.412Z,14.32
2022-08-30T04:23:26.364Z,18.60
2022-08-30T04:25:53.191Z,16.50
2022-08-30T04:28:22.472Z,14.93
2022-08-30T04:30:49.406Z,17.77
2022-08-30T04:33:17.324Z,16.25
2022-08-30T04:35:46.773Z,17.85
2022-08-30T04:38:15.003Z,15.95
2022-08-30T04:40:43.637Z,14.20
2022-08-30T04:43:12.982Z,14.00
2022-08-30T04:45:41.212Z,14.75
2022-08-30T04:48:08.815Z,16.30
2022-08-30T04:50:35.570Z,16.63
2022-08-30T04:53:05.442Z,16.15
2022-08-30T04:55:32.620Z,15.48
2022-08-30T04:57:59.462Z,17.92
2022-08-30T05:00:29.697Z,15.25
2022-08-30T05:02:56.508Z,15.73
2022-08-30T05:05:45.650Z,15.20
2022-08-30T05:08:16.168Z,19.55
2022-08-30T05:10:47.441Z,16.83
2022-08-30T05:13:17.704Z,17.65
2022-08-30T05:15:45.025Z,16.80
2022-08-30T05:18:14.049Z,19.42
2022-08-30T05:20:41.811Z,15.65
2022-08-30T05:23:10.906Z,15.15
2022-08-30T05:25:40.036Z,15.85
2022-08-30T05:28:07.010Z,15.00
2022-08-30T05:30:36.756Z,15.98
2022-08-30T05:33:04.129Z,16.00
2022-08-30T05:35:31.097Z,17.50
2022-08-30T05:38:00.100Z,18.02
2022-08-30T05:40:26.983Z,18.08
2022-08-30T05:42:56.061Z,18.17
2022-08-30T05:45:23.121Z,18.85
2022-08-30T05:47:49.963Z,15.75
2022-08-30T05:50:19.001Z,18.58
2022-08-30T05:52:45.780Z,14.80
2022-08-30T05:55:13.463Z,16.35
2022-08-30T05:57:41.369Z,14.77
2022-08-30T06:00:18.228Z,16.75
2022-08-30T06:02:45.237Z,15.68
2022-08-30T06:05:14.267Z,17.55
2022-08-30T06:07:44.131Z,15.73
2022-08-30T06:10:12.442Z,14.63
2022-08-30T06:12:39.517Z,16.02
2022-08-30T06:15:10.201Z,14.43
2022-08-30T06:17:39.580Z,14.30
2022-08-30T06:20:06.988Z,13.70
2022-08-30T06:22:33.790Z,14.27
2022-08-30T06:25:00.835Z,15.20
2022-08-30T06:27:31.229Z,16.58
2022-08-30T06:29:58.226Z,14.45
2022-08-30T06:32:27.403Z,16.10
2022-08-30T06:34:54.277Z,15.50
2022-08-30T06:37:29.353Z,14.07
2022-08-30T06:39:57.818Z,12.23
2022-08-30T06:42:30.618Z,11.60
2022-08-30T06:45:02.060Z,12.02
2022-08-30T06:47:31.867Z,13.50
2022-08-30T06:49:59.332Z,13.23
2022-08-30T06:52:26.171Z,12.63
2022-08-30T06:54:58.953Z,11.75
2022-08-30T06:57:26.668Z,11.77
2022-08-30T06:59:57.579Z,13.40
2022-08-30T07:02:25.018Z,11.10
2022-08-30T07:04:52.312Z,9.60
2022-08-30T07:07:21.515Z,9.55
2022-08-30T07:09:50.463Z,10.43
2022-08-30T07:12:19.568Z,9.00
2022-08-30T07:14:46.745Z,8.32
2022-08-30T07:17:34.666Z,9.82
2022-08-30T07:20:02.621Z,8.82
2022-08-30T07:22:33.502Z,8.82
2022-08-30T07:25:03.080Z,9.43
2022-08-30T07:27:31.620Z,9.02
2022-08-30T07:30:01.068Z,8.65
2022-08-30T07:32:27.883Z,8.05
2022-08-30T07:34:55.835Z,9.82
2022-08-30T07:37:24.774Z,9.45
2022-08-30T07:39:51.768Z,8.35
2022-08-30T07:42:18.756Z,6.93
2022-08-30T07:44:47.797Z,7.97
2022-08-30T07:47:16.701Z,8.20
2022-08-30T07:49:46.062Z,9.52
2022-08-30T07:52:15.216Z,8.48
2022-08-30T07:54:43.034Z,8.98
2022-08-30T07:57:10.077Z,6.78
2022-08-30T07:59:36.935Z,6.80
2022-08-30T08:02:03.968Z,7.07
2022-08-30T08:04:35.581Z,5.93
2022-08-30T08:07:02.772Z,4.95
2022-08-30T08:09:29.766Z,4.72
2022-08-30T08:11:56.912Z,3.25
2022-08-30T08:14:23.963Z,5.00
2022-08-30T08:16:53.491Z,3.92
2022-08-30T08:19:20.876Z,3.25
2022-08-30T08:21:52.781Z,6.38
2022-08-30T08:24:27.544Z,4.53
2022-08-30T08:26:59.048Z,4.45
2022-08-30T08:31:57.211Z,6.65
2022-08-30T08:34:26.609Z,5.00
2022-08-30T08:36:55.856Z,5.97
2022-08-30T08:39:22.637Z,4.05
2022-08-30T08:42:11.366Z,5.68
2022-08-30T08:47:28.823Z,5.40
2022-08-30T08:50:01.324Z,6.50
2022-08-30T08:53:13.322Z,4.90
2022-08-30T08:55:50.640Z,6.72
2022-08-30T08:58:34.199Z,3.70
2022-08-30T09:01:03.819Z,5.72
2022-08-30T09:03:30.683Z,4.22
2022-08-30T09:05:59.760Z,3.72
2022-08-30T09:08:29.116Z,4.80
2022-08-30T09:11:02.579Z,5.10
2022-08-30T09:13:33.963Z,5.15
2022-08-30T09:16:01.333Z,3.38
2022-08-30T09:18:54.442Z,4.88
2022-08-30T09:21:28.924Z,4.97
2022-08-30T09:24:04.831Z,4.35
2022-08-30T09:26:35.478Z,4.75
2022-08-30T09:29:05.804Z,4.00
2022-08-30T09:31:46.027Z,6.23
2022-08-30T09:34:18.619Z,8.05
2022-08-30T09:36:51.439Z,2.38
2022-08-30T09:39:34.582Z,4.43
2022-08-30T09:42:14.430Z,5.47
2022-08-30T09:44:41.349Z,6.80
2022-08-30T09:47:24.258Z,4.13
2022-08-30T09:50:14.097Z,4.78
2022-08-30T09:53:02.844Z,4.50
2022-08-30T09:55:56.873Z,2.97
2022-08-30T09:58:34.307Z,4.88
2022-08-30T10:01:15.302Z,5.07
2022-08-30T10:03:48.714Z,6.88
2022-08-30T10:06:31.252Z,4.03
2022-08-30T10:09:12.922Z,4.63
2022-08-30T10:11:57.226Z,2.72
2022-08-30T10:14:51.428Z,4.85
2022-08-30T10:17:39.162Z,3.85
2022-08-30T10:20:33.900Z,4.32
2022-08-30T10:23:21.083Z,3.33
2022-08-30T10:25:55.114Z,6.40
2022-08-30T10:28:38.860Z,3.33
2022-08-30T10:31:10.994Z,3.97
2022-08-30T10:33:46.389Z,8.10
2022-08-30T10:36:15.381Z,3.90
2022-08-30T10:38:48.379Z,5.78
2022-08-30T10:41:27.684Z,3.15
2022-08-30T10:44:04.315Z,2.95
2022-08-30T10:46:56.699Z,2.72
2022-08-30T10:49:29.113Z,4.45
2022-08-30T10:52:20.501Z,4.43
2022-08-30T10:57:20.507Z,3.92
2022-08-30T11:00:29.144Z,5.43
2022-08-30T11:03:14.275Z,3.60
2022-08-30T11:06:06.158Z,5.38
2022-08-30T11:08:52.247Z,3.58
2022-08-30T11:11:27.933Z,4.75
2022-08-30T11:14:05.485Z,2.67
2022-08-30T11:16:46.709Z,3.97
2022-08-30T11:19:26.383Z,2.50
2022-08-30T11:22:30.087Z,5.35
2022-08-30T11:25:38.802Z,5.22
2022-08-30T11:28:06.383Z,3.85
2022-08-30T11:30:33.191Z,3.53
2022-08-30T11:33:02.060Z,8.50
2022-08-30T11:35:41.928Z,3.10
2022-08-30T11:38:19.442Z,3.33
2022-08-30T11:41:10.968Z,4.85
2022-08-30T11:43:40.520Z,4.10
2022-08-30T11:46:40.328Z,2.45
2022-08-30T11:49:15.735Z,3.55
2022-08-30T11:52:27.632Z,4.18
2022-08-30T11:55:03.716Z,7.00
2022-08-30T11:57:50.292Z,3.88
2022-08-30T12:00:35.771Z,6.03
2022-08-30T12:03:07.604Z,3.83
2022-08-30T12:05:44.370Z,4.97
2022-08-30T12:08:20.336Z,4.32
2022-08-30T12:10:59.982Z,3.30
2022-08-30T12:13:39.925Z,7.55
2022-08-30T12:16:11.639Z,5.97
2022-08-30T12:18:57.145Z,2.85
2022-08-30T12:21:28.748Z,4.18
2022-08-30T12:24:23.523Z,4.40
2022-08-30T12:26:52.329Z,3.75
2022-08-30T12:29:19.235Z,4.97
2022-08-30T12:32:17.498Z,4.05
2022-08-30T12:34:46.599Z,3.22
2022-08-30T12:37:37.715Z,6.03
2022-08-30T12:40:14.356Z,5.13
2022-08-30T12:42:51.414Z,6.95
2022-08-30T12:45:21.748Z,5.90
2022-08-30T12:47:58.272Z,4.90
2022-08-30T12:50:42.798Z,6.72
2022-08-30T12:53:14.153Z,8.00
2022-08-30T12:55:53.854Z,3.28
2022-08-30T12:58:40.920Z,7.28
2022-08-30T13:01:19.398Z,6.32
2022-08-30T13:04:13.338Z,4.88
2022-08-30T13:06:58.129Z,6.10
2022-08-30T13:09:41.052Z,9.55
2022-08-30T13:12:20.903Z,5.60
2022-08-30T13:14:49.551Z,4.85
2022-08-30T13:17:19.146Z,5.18
2022-08-30T13:20:19.521Z,4.60
2022-08-30T13:23:09.709Z,2.40
2022-08-30T13:25:38.297Z,3.05
2022-08-30T13:28:06.998Z,5.43
2022-08-30T13:30:34.272Z,5.38
2022-08-30T13:33:02.292Z,3.88
2022-08-30T13:35:31.295Z,5.53
2022-08-30T13:38:00.246Z,3.78
2022-08-30T13:40:27.884Z,4.68
2022-08-30T13:42:54.648Z,4.20
2022-08-30T13:48:11.367Z,3.97
2022-08-30T13:50:38.966Z,6.25
2022-08-30T13:53:05.830Z,7.47
2022-08-30T13:55:33.915Z,3.58
2022-08-30T13:58:00.678Z,5.93
2022-08-30T14:00:28.237Z,6.03
2022-08-30T14:02:57.517Z,7.10
2022-08-30T14:11:15.713Z,6.93
2022-08-30T14:16:31.665Z,4.63
2022-08-30T14:19:00.335Z,6.97
2022-08-30T14:21:27.198Z,4.20
2022-08-30T14:24:02.039Z,4.45
2022-08-30T14:26:36.282Z,6.07
2022-08-30T14:29:08.951Z,6.82
2022-08-30T14:31:37.105Z,5.15
2022-08-30T14:34:05.650Z,6.68
2022-08-30T14:36:36.614Z,4.57
2022-08-30T14:39:08.617Z,4.05
2022-08-30T14:41:43.421Z,4.13
2022-08-30T14:44:15.206Z,9.77
2022-08-30T14:46:43.104Z,6.22
2022-08-30T14:49:12.198Z,8.77
2022-08-30T14:51:40.240Z,3.92
2022-08-30T14:54:08.018Z,3.28
2022-08-30T14:56:34.873Z,5.47
2022-08-30T14:59:02.952Z,7.53
2022-08-30T15:01:30.603Z,3.90
2022-08-30T15:03:58.985Z,3.80
2022-08-30T15:06:29.494Z,7.10
2022-08-30T15:08:59.561Z,2.80
2022-08-30T15:11:29.688Z,4.55
2022-08-30T15:13:56.559Z,5.30
2022-08-30T15:16:29.334Z,5.45
2022-08-30T15:18:58.238Z,6.32
2022-08-30T15:21:37.645Z,7.72
2022-08-30T15:24:06.907Z,3.65
2022-08-30T15:26:33.880Z,3.67
2022-08-30T15:29:00.761Z,5.68
2022-08-30T15:31:29.118Z,5.07
2022-08-30T15:33:56.661Z,4.22
2022-08-30T15:36:23.989Z,5.20
2022-08-30T15:38:55.386Z,2.40
2022-08-30T15:41:23.071Z,6.68
2022-08-30T15:43:54.350Z,8.68
2022-08-30T15:46:30.041Z,4.22
2022-08-30T15:49:02.386Z,6.38
2022-08-30T15:51:30.887Z,6.47
2022-08-30T15:54:12.030Z,6.43
2022-08-30T15:56:38.918Z,3.58
2022-08-30T15:59:05.747Z,7.65
2022-08-30T16:01:36.928Z,6.85
2022-08-30T16:04:06.714Z,4.17
2022-08-30T16:06:37.365Z,3.85
2022-08-30T16:09:05.740Z,5.57
2022-08-30T16:11:34.174Z,4.75
2022-08-30T16:14:02.058Z,3.90
2022-08-30T16:16:31.142Z,3.53
2022-08-30T16:18:58.392Z,3.20
2022-08-30T16:21:27.805Z,5.93
2022-08-30T16:24:01.018Z,4.63
2022-08-30T16:26:31.445Z,2.58
2022-08-30T16:28:59.221Z,4.93
2022-08-30T16:31:28.740Z,6.43
2022-08-30T16:33:57.368Z,3.45
2022-08-30T16:36:29.097Z,3.90
2022-08-30T16:38:58.260Z,4.95
2022-08-30T16:41:25.436Z,6.40
2022-08-30T16:43:53.709Z,5.43
2022-08-30T16:46:27.359Z,4.47
2022-08-30T16:48:59.414Z,3.80
2022-08-30T16:51:32.237Z,5.38
2022-08-30T16:54:01.612Z,2.67
2022-08-30T16:56:32.920Z,5.18
2022-08-30T16:59:02.686Z,2.38
2022-08-30T17:01:34.638Z,5.30
2022-08-30T17:04:02.442Z,2.70
2022-08-30T17:06:29.326Z,3.42
2022-08-30T17:08:58.974Z,8.13
2022-08-30T17:11:26.621Z,4.53
2022-08-30T17:13:53.943Z,3.40
2022-08-30T17:16:27.542Z,4.70
2022-08-30T17:18:59.600Z,3.53
2022-08-30T17:21:30.975Z,4.80
2022-08-30T17:24:02.447Z,5.40
2022-08-30T17:26:34.751Z,5.57
2022-08-30T17:29:02.588Z,3.97
2022-08-30T17:33:00.180Z,5.40
2022-08-30T17:35:29.961Z,4.78
2022-08-30T17:37:57.223Z,3.28
2022-08-30T17:40:24.097Z,5.28
2022-08-30T17:42:53.568Z,5.47
2022-08-30T17:45:21.189Z,3.63
2022-08-30T17:47:50.709Z,5.38
2022-08-30T17:50:20.545Z,2.87
2022-08-30T17:52:50.186Z,4.25
2022-08-30T17:55:19.637Z,3.78
2022-08-30T17:57:46.373Z,5.55
2022-08-30T18:02:48.309Z,4.82
2022-08-30T18:05:15.959Z,2.88
2022-08-30T18:07:42.976Z,4.65
2022-08-30T18:10:10.272Z,3.33
2022-08-30T18:12:39.298Z,2.58
2022-08-30T18:15:12.483Z,3.55
2022-08-30T18:17:47.610Z,2.20
2022-08-30T18:20:15.430Z,3.25
2022-08-30T18:22:45.144Z,4.88
2022-08-30T18:25:12.142Z,3.80
2022-08-30T18:27:39.385Z,4.95
2022-08-30T18:30:11.531Z,3.28
2022-08-30T18:32:38.575Z,2.83
2022-08-30T18:35:06.359Z,4.95
2022-08-30T18:37:33.328Z,2.80
2022-08-30T18:40:02.933Z,3.80
2022-08-30T18:42:32.297Z,3.42
2022-08-30T18:44:59.366Z,4.20
2022-08-30T18:47:37.397Z,3.92
2022-08-30T18:50:05.925Z,3.65
2022-08-30T18:52:33.485Z,3.03
2022-08-30T18:55:02.713Z,5.82
2022-08-30T18:57:32.389Z,2.85
2022-08-30T18:59:59.704Z,4.43
2022-08-30T19:02:27.583Z,3.67
2022-08-30T19:04:55.405Z,6.15
2022-08-30T19:07:30.872Z,6.38
2022-08-30T19:10:01.726Z,9.25
2022-08-30T19:12:31.576Z,3.42
2022-08-30T19:15:00.875Z,7.78
2022-08-30T19:17:32.153Z,4.90
2022-08-30T19:20:01.803Z,5.75
2022-08-30T19:23:03.417Z,2.92
2022-08-30T19:25:20.832Z,3.80
2022-08-30T19:27:50.761Z,4.53
2022-08-30T19:30:23.114Z,5.05
2022-08-30T19:32:53.049Z,6.10
2022-08-30T19:35:20.429Z,5.88
2022-08-30T19:37:49.784Z,5.40
2022-08-30T19:40:19.076Z,7.63
2022-08-30T19:42:46.765Z,3.92
2022-08-30T19:45:17.777Z,6.35
2022-08-30T19:47:50.314Z,4.18
2022-08-30T19:50:20.376Z,4.40
2022-08-30T19:52:53.708Z,5.57
2022-08-30T19:55:28.173Z,5.63
2022-08-30T19:57:55.255Z,4.80
2022-08-30T20:00:23.491Z,3.72
2022-08-30T20:02:52.948Z,6.90
2022-08-30T20:05:23.943Z,6.10
2022-08-30T20:07:51.404Z,7.78
2022-08-30T20:10:25.841Z,5.10
2022-08-30T20:12:52.903Z,7.45
2022-08-30T20:15:21.992Z,6.95
2022-08-30T20:18:06.392Z,6.03
2022-08-30T20:20:38.829Z,5.93
2022-08-30T20:23:06.007Z,6.68
2022-08-30T20:25:33.295Z,7.47
2022-08-30T20:28:00.420Z,5.03
2022-08-30T20:30:29.792Z,6.40
2022-08-30T20:32:57.280Z,4.90
2022-08-30T20:35:24.610Z,6.97
2022-08-30T20:37:51.432Z,6.95
2022-08-30T20:40:20.634Z,6.93
2022-08-30T20:42:47.900Z,5.72
2022-08-30T20:45:16.929Z,4.80
2022-08-30T20:47:44.257Z,8.73
2022-08-30T20:50:14.200Z,6.93
2022-08-30T20:52:41.751Z,7.00
2022-08-30T20:55:10.441Z,6.63
2022-08-30T20:57:37.483Z,7.88
2022-08-30T21:00:13.793Z,6.22
2022-08-30T21:02:46.468Z,9.50
2022-08-30T21:05:18.259Z,7.07
2022-08-30T21:07:46.088Z,9.27
2022-08-30T21:10:13.892Z,5.95
2022-08-30T21:12:42.886Z,7.47
2022-08-30T21:15:34.173Z,5.40
2022-08-30T21:17:57.113Z,7.85
2022-08-30T21:20:23.883Z,6.07
2022-08-30T21:22:55.881Z,7.45
2022-08-30T21:25:24.928Z,5.43
2022-08-30T21:27:53.880Z,7.45
2022-08-30T21:30:20.834Z,8.32
2022-08-30T21:32:47.829Z,7.40
2022-08-30T21:35:33.154Z,6.75
2022-08-30T21:37:59.916Z,8.38
2022-08-30T21:40:27.287Z,5.38
2022-08-30T21:42:56.467Z,7.45
2022-08-30T21:45:23.427Z,8.30
2022-08-30T21:47:50.151Z,7.82
2022-08-30T21:50:16.965Z,6.78
2022-08-30T21:52:46.300Z,8.85
2022-08-30T21:55:15.702Z,10.60
2022-08-30T21:57:42.477Z,9.07
2022-08-30T22:00:10.297Z,11.77
2022-08-30T22:02:37.094Z,7.20
2022-08-30T22:05:06.299Z,9.05
2022-08-30T22:07:33.077Z,9.90
2022-08-30T22:09:59.818Z,9.60
2022-08-30T22:12:28.735Z,7.53
2022-08-30T22:14:58.556Z,10.07
2022-08-30T22:17:28.449Z,7.82
2022-08-30T22:19:55.301Z,7.30
2022-08-30T22:22:22.261Z,8.52
2022-08-30T22:24:52.144Z,10.10
2022-08-30T22:27:21.065Z,14.88
2022-08-30T22:29:50.751Z,7.93
2022-08-30T22:32:17.821Z,13.00
2022-08-30T22:34:45.779Z,6.40
2022-08-30T22:37:12.556Z,6.88
2022-08-30T22:39:41.861Z,7.47
2022-08-30T22:42:09.885Z,6.32
2022-08-30T22:44:36.929Z,6.38
2022-08-30T22:47:06.348Z,8.95
2022-08-30T22:49:33.109Z,9.05
2022-08-30T22:51:59.875Z,6.47
2022-08-30T22:54:26.717Z,6.03
2022-08-30T22:56:53.498Z,6.60
2022-08-30T22:59:30.345Z,11.25
2022-08-30T23:02:01.487Z,8.70
2022-08-30T23:04:28.592Z,8.32
2022-08-30T23:06:55.377Z,9.30
2022-08-30T23:09:22.843Z,4.38
2022-08-30T23:11:52.144Z,6.30
2022-08-30T23:14:19.023Z,3.55
2022-08-30T23:16:49.145Z,4.90
2022-08-30T23:19:16.895Z,4.55
2022-08-30T23:21:44.040Z,5.93
2022-08-30T23:24:29.405Z,3.83
2022-08-30T23:27:14.995Z,8.00
2022-08-30T23:30:00.375Z,5.68
2022-08-30T23:32:45.804Z,4.50
2022-08-30T23:35:32.165Z,4.30
2022-08-30T23:38:20.893Z,6.22
2022-08-30T23:41:08.920Z,4.90
2022-08-30T23:43:56.468Z,4.18
2022-08-30T23:46:41.952Z,4.47
2022-08-30T23:49:27.525Z,5.63
2022-08-30T23:52:13.017Z,4.75
2022-08-30T23:54:58.567Z,5.32
2022-08-30T23:57:44.948Z,5.15
